sensor_id;sensor_type;location;lat;lon;timestamp;P1;durP1;ratioP1;P2;durP2;ratioP2
9445;SDS011;4761;49.490;10.908;2022-10-16T00:00:35;1.73;;;0.90;;
9445;SDS011;4761;49.490;10.908;2022-10-16T00:03:03;1.23;;;0.90;;
9445;SDS011;4761;49.490;10.908;2022-10-16T00:05:30;2.60;;;1.07;;
9445;SDS011;4761;49.490;10.908;2022-10-16T00:07:56;1.50;;;1.00;;
9445;SDS011;4761;49.490;10.908;2022-10-16T00:10:21;2.50;;;0.87;;
9445;SDS011;4761;49.490;10.908;2022-10-16T00:12:47;0.87;;;0.80;;
9445;SDS011;4761;49.490;10.908;2022-10-16T00:15:13;1.10;;;0.90;;
9445;SDS011;4761;49.490;10.908;2022-10-16T00:17:38;2.07;;;0.90;;
9445;SDS011;4761;49.490;10.908;2022-10-16T00:20:04;1.93;;;0.80;;
9445;SDS011;4761;49.490;10.908;2022-10-16T00:22:30;1.63;;;0.70;;
9445;SDS011;4761;49.490;10.908;2022-10-16T00:24:56;2.33;;;1.07;;
9445;SDS011;4761;49.490;10.908;2022-10-16T00:27:21;2.13;;;1.20;;
9445;SDS011;4761;49.490;10.908;2022-10-16T00:29:50;1.53;;;0.90;;
9445;SDS011;4761;49.490;10.908;2022-10-16T00:32:16;0.80;;;0.80;;
9445;SDS011;4761;49.490;10.908;2022-10-16T00:34:42;2.23;;;0.97;;
9445;SDS011;4761;49.490;10.908;2022-10-16T00:37:08;3.13;;;0.73;;
9445;SDS011;4761;49.490;10.908;2022-10-16T00:39:34;2.00;;;0.90;;
9445;SDS011;4761;49.490;10.908;2022-10-16T00:41:59;1.10;;;0.90;;
9445;SDS011;4761;49.490;10.908;2022-10-16T00:44:41;2.30;;;0.87;;
9445;SDS011;4761;49.490;10.908;2022-10-16T00:47:26;1.33;;;0.90;;
9445;SDS011;4761;49.490;10.908;2022-10-16T00:50:05;1.73;;;0.87;;
9445;SDS011;4761;49.490;10.908;2022-10-16T00:52:34;0.93;;;0.90;;
9445;SDS011;4761;49.490;10.908;2022-10-16T00:55:00;2.40;;;0.90;;
9445;SDS011;4761;49.490;10.908;2022-10-16T00:57:27;3.47;;;0.80;;
9445;SDS011;4761;49.490;10.908;2022-10-16T00:59:53;2.10;;;0.90;;
9445;SDS011;4761;49.490;10.908;2022-10-16T01:02:19;1.97;;;0.80;;
9445;SDS011;4761;49.490;10.908;2022-10-16T01:04:49;1.37;;;0.90;;
9445;SDS011;4761;49.490;10.908;2022-10-16T01:10:14;2.63;;;0.97;;
9445;SDS011;4761;49.490;10.908;2022-10-16T01:20:31;1.83;;;0.87;;
9445;SDS011;4761;49.490;10.908;2022-10-16T01:25:49;1.40;;;0.90;;
9445;SDS011;4761;49.490;10.908;2022-10-16T01:28:18;2.60;;;1.10;;
9445;SDS011;4761;49.490;10.908;2022-10-16T01:30:49;1.80;;;0.70;;
9445;SDS011;4761;49.490;10.908;2022-10-16T01:33:23;2.47;;;0.90;;
9445;SDS011;4761;49.490;10.908;2022-10-16T01:35:53;2.13;;;1.03;;
9445;SDS011;4761;49.490;10.908;2022-10-16T01:38:28;3.00;;;1.03;;
9445;SDS011;4761;49.490;10.908;2022-10-16T01:41:00;0.90;;;0.90;;
9445;SDS011;4761;49.490;10.908;2022-10-16T01:43:31;1.63;;;1.00;;
9445;SDS011;4761;49.490;10.908;2022-10-16T01:46:01;1.47;;;1.13;;
9445;SDS011;4761;49.490;10.908;2022-10-16T01:48:27;1.13;;;0.97;;
9445;SDS011;4761;49.490;10.908;2022-10-16T01:50:59;2.27;;;0.90;;
9445;SDS011;4761;49.490;10.908;2022-10-16T01:53:29;0.80;;;0.80;;
9445;SDS011;4761;49.490;10.908;2022-10-16T01:55:56;1.07;;;0.83;;
9445;SDS011;4761;49.490;10.908;2022-10-16T01:58:23;2.00;;;0.97;;
9445;SDS011;4761;49.490;10.908;2022-10-16T02:00:52;1.67;;;0.80;;
9445;SDS011;4761;49.490;10.908;2022-10-16T02:03:20;1.90;;;1.03;;
9445;SDS011;4761;49.490;10.908;2022-10-16T02:05:47;0.80;;;0.80;;
9445;SDS011;4761;49.490;10.908;2022-10-16T02:08:19;1.10;;;0.90;;
9445;SDS011;4761;49.490;10.908;2022-10-16T02:10:47;1.87;;;1.00;;
9445;SDS011;4761;49.490;10.908;2022-10-16T02:13:13;2.67;;;0.90;;
9445;SDS011;4761;49.490;10.908;2022-10-16T02:15:43;1.10;;;1.00;;
9445;SDS011;4761;49.490;10.908;2022-10-16T02:18:09;2.50;;;1.00;;
9445;SDS011;4761;49.490;10.908;2022-10-16T02:20:37;1.60;;;1.10;;
9445;SDS011;4761;49.490;10.908;2022-10-16T02:23:15;1.13;;;0.90;;
9445;SDS011;4761;49.490;10.908;2022-10-16T02:25:52;3.63;;;1.00;;
9445;SDS011;4761;49.490;10.908;2022-10-16T02:28:22;1.73;;;0.87;;
9445;SDS011;4761;49.490;10.908;2022-10-16T02:30:56;2.03;;;1.03;;
9445;SDS011;4761;49.490;10.908;2022-10-16T02:33:25;1.73;;;0.80;;
9445;SDS011;4761;49.490;10.908;2022-10-16T02:35:52;1.00;;;0.90;;
9445;SDS011;4761;49.490;10.908;2022-10-16T02:38:19;2.67;;;1.20;;
9445;SDS011;4761;49.490;10.908;2022-10-16T02:40:46;1.67;;;1.10;;
9445;SDS011;4761;49.490;10.908;2022-10-16T02:43:11;2.47;;;1.47;;
9445;SDS011;4761;49.490;10.908;2022-10-16T02:45:38;3.70;;;1.80;;
9445;SDS011;4761;49.490;10.908;2022-10-16T02:48:03;4.00;;;1.60;;
9445;SDS011;4761;49.490;10.908;2022-10-16T02:50:29;3.10;;;1.77;;
9445;SDS011;4761;49.490;10.908;2022-10-16T02:52:55;1.90;;;1.50;;
9445;SDS011;4761;49.490;10.908;2022-10-16T02:55:20;4.33;;;3.70;;
9445;SDS011;4761;49.490;10.908;2022-10-16T02:57:46;5.90;;;4.70;;
9445;SDS011;4761;49.490;10.908;2022-10-16T03:00:13;6.90;;;4.23;;
9445;SDS011;4761;49.490;10.908;2022-10-16T03:02:40;7.80;;;4.30;;
9445;SDS011;4761;49.490;10.908;2022-10-16T03:05:06;3.53;;;3.13;;
9445;SDS011;4761;49.490;10.908;2022-10-16T03:07:32;3.33;;;3.03;;
9445;SDS011;4761;49.490;10.908;2022-10-16T03:09:57;3.23;;;2.93;;
9445;SDS011;4761;49.490;10.908;2022-10-16T03:12:25;3.90;;;2.87;;
9445;SDS011;4761;49.490;10.908;2022-10-16T03:14:52;2.97;;;2.67;;
9445;SDS011;4761;49.490;10.908;2022-10-16T03:17:17;4.33;;;3.40;;
9445;SDS011;4761;49.490;10.908;2022-10-16T03:19:43;6.37;;;5.73;;
9445;SDS011;4761;49.490;10.908;2022-10-16T03:22:09;5.53;;;4.90;;
9445;SDS011;4761;49.490;10.908;2022-10-16T03:24:35;5.03;;;4.53;;
9445;SDS011;4761;49.490;10.908;2022-10-16T03:27:00;5.93;;;3.90;;
9445;SDS011;4761;49.490;10.908;2022-10-16T03:29:26;6.10;;;3.17;;
9445;SDS011;4761;49.490;10.908;2022-10-16T03:31:52;5.00;;;3.00;;
9445;SDS011;4761;49.490;10.908;2022-10-16T03:34:18;4.17;;;3.43;;
9445;SDS011;4761;49.490;10.908;2022-10-16T03:36:43;5.40;;;2.60;;
9445;SDS011;4761;49.490;10.908;2022-10-16T03:39:09;4.97;;;3.07;;
9445;SDS011;4761;49.490;10.908;2022-10-16T03:41:34;2.40;;;2.20;;
9445;SDS011;4761;49.490;10.908;2022-10-16T03:44:00;2.93;;;2.40;;
9445;SDS011;4761;49.490;10.908;2022-10-16T03:46:25;5.63;;;2.27;;
9445;SDS011;4761;49.490;10.908;2022-10-16T03:48:51;2.60;;;2.20;;
9445;SDS011;4761;49.490;10.908;2022-10-16T03:51:16;3.57;;;1.87;;
9445;SDS011;4761;49.490;10.908;2022-10-16T03:53:42;2.50;;;2.30;;
9445;SDS011;4761;49.490;10.908;2022-10-16T03:56:07;2.80;;;2.00;;
9445;SDS011;4761;49.490;10.908;2022-10-16T03:58:33;4.47;;;2.00;;
9445;SDS011;4761;49.490;10.908;2022-10-16T04:00:58;6.83;;;3.27;;
9445;SDS011;4761;49.490;10.908;2022-10-16T04:03:24;4.67;;;4.13;;
9445;SDS011;4761;49.490;10.908;2022-10-16T04:05:50;4.87;;;4.23;;
9445;SDS011;4761;49.490;10.908;2022-10-16T04:08:15;11.83;;;4.00;;
9445;SDS011;4761;49.490;10.908;2022-10-16T04:10:44;5.07;;;3.27;;
9445;SDS011;4761;49.490;10.908;2022-10-16T04:13:10;4.22;;;3.30;;
9445;SDS011;4761;49.490;10.908;2022-10-16T04:15:36;3.90;;;2.97;;
9445;SDS011;4761;49.490;10.908;2022-10-16T04:18:01;3.20;;;2.90;;
9445;SDS011;4761;49.490;10.908;2022-10-16T04:20:27;2.80;;;2.50;;
9445;SDS011;4761;49.490;10.908;2022-10-16T04:22:52;2.70;;;2.43;;
9445;SDS011;4761;49.490;10.908;2022-10-16T04:25:18;3.77;;;2.70;;
9445;SDS011;4761;49.490;10.908;2022-10-16T04:27:43;3.23;;;2.23;;
9445;SDS011;4761;49.490;10.908;2022-10-16T04:30:09;2.73;;;2.27;;
9445;SDS011;4761;49.490;10.908;2022-10-16T04:32:35;2.60;;;2.30;;
9445;SDS011;4761;49.490;10.908;2022-10-16T04:35:00;2.87;;;2.10;;
9445;SDS011;4761;49.490;10.908;2022-10-16T04:37:26;2.47;;;1.93;;
9445;SDS011;4761;49.490;10.908;2022-10-16T04:39:52;4.70;;;1.60;;
9445;SDS011;4761;49.490;10.908;2022-10-16T04:42:18;1.60;;;1.50;;
9445;SDS011;4761;49.490;10.908;2022-10-16T04:44:44;4.00;;;1.83;;
9445;SDS011;4761;49.490;10.908;2022-10-16T04:47:10;1.63;;;1.30;;
9445;SDS011;4761;49.490;10.908;2022-10-16T04:49:36;2.37;;;1.70;;
9445;SDS011;4761;49.490;10.908;2022-10-16T04:52:01;3.10;;;1.40;;
9445;SDS011;4761;49.490;10.908;2022-10-16T04:54:27;5.80;;;1.63;;
9445;SDS011;4761;49.490;10.908;2022-10-16T04:56:53;2.50;;;1.40;;
9445;SDS011;4761;49.490;10.908;2022-10-16T04:59:19;1.63;;;1.30;;
9445;SDS011;4761;49.490;10.908;2022-10-16T05:01:45;2.10;;;1.43;;
9445;SDS011;4761;49.490;10.908;2022-10-16T05:04:11;1.80;;;1.27;;
9445;SDS011;4761;49.490;10.908;2022-10-16T05:06:37;2.57;;;1.30;;
9445;SDS011;4761;49.490;10.908;2022-10-16T05:09:03;1.60;;;1.40;;
9445;SDS011;4761;49.490;10.908;2022-10-16T05:11:32;2.37;;;1.30;;
9445;SDS011;4761;49.490;10.908;2022-10-16T05:13:58;1.00;;;1.00;;
9445;SDS011;4761;49.490;10.908;2022-10-16T05:16:24;1.60;;;1.50;;
9445;SDS011;4761;49.490;10.908;2022-10-16T05:18:50;3.00;;;1.23;;
9445;SDS011;4761;49.490;10.908;2022-10-16T05:21:16;3.07;;;1.20;;
9445;SDS011;4761;49.490;10.908;2022-10-16T05:23:42;2.13;;;1.33;;
9445;SDS011;4761;49.490;10.908;2022-10-16T05:26:07;1.17;;;1.00;;
9445;SDS011;4761;49.490;10.908;2022-10-16T05:28:33;1.13;;;1.00;;
9445;SDS011;4761;49.490;10.908;2022-10-16T05:30:58;2.57;;;1.40;;
9445;SDS011;4761;49.490;10.908;2022-10-16T05:33:28;3.33;;;1.27;;
9445;SDS011;4761;49.490;10.908;2022-10-16T05:35:54;2.10;;;1.60;;
9445;SDS011;4761;49.490;10.908;2022-10-16T05:38:19;1.50;;;1.20;;
9445;SDS011;4761;49.490;10.908;2022-10-16T05:40:50;1.93;;;1.37;;
9445;SDS011;4761;49.490;10.908;2022-10-16T05:43:17;1.60;;;1.30;;
9445;SDS011;4761;49.490;10.908;2022-10-16T05:45:43;2.03;;;1.27;;
9445;SDS011;4761;49.490;10.908;2022-10-16T05:48:08;1.87;;;1.33;;
9445;SDS011;4761;49.490;10.908;2022-10-16T05:50:34;1.70;;;1.20;;
9445;SDS011;4761;49.490;10.908;2022-10-16T05:52:59;1.20;;;1.10;;
9445;SDS011;4761;49.490;10.908;2022-10-16T05:55:25;1.83;;;1.20;;
9445;SDS011;4761;49.490;10.908;2022-10-16T05:57:53;1.37;;;1.20;;
9445;SDS011;4761;49.490;10.908;2022-10-16T06:00:19;2.07;;;1.40;;
9445;SDS011;4761;49.490;10.908;2022-10-16T06:02:44;1.97;;;1.20;;
9445;SDS011;4761;49.490;10.908;2022-10-16T06:05:10;1.30;;;1.10;;
9445;SDS011;4761;49.490;10.908;2022-10-16T06:07:36;2.13;;;1.40;;
9445;SDS011;4761;49.490;10.908;2022-10-16T06:10:02;1.30;;;1.20;;
9445;SDS011;4761;49.490;10.908;2022-10-16T06:12:29;2.60;;;1.00;;
9445;SDS011;4761;49.490;10.908;2022-10-16T06:14:54;2.93;;;1.17;;
9445;SDS011;4761;49.490;10.908;2022-10-16T06:17:20;1.23;;;1.00;;
9445;SDS011;4761;49.490;10.908;2022-10-16T06:19:45;2.40;;;1.17;;
9445;SDS011;4761;49.490;10.908;2022-10-16T06:22:11;1.30;;;1.00;;
9445;SDS011;4761;49.490;10.908;2022-10-16T06:24:37;1.50;;;0.93;;
9445;SDS011;4761;49.490;10.908;2022-10-16T06:27:03;1.10;;;1.00;;
9445;SDS011;4761;49.490;10.908;2022-10-16T06:29:29;1.00;;;1.00;;
9445;SDS011;4761;49.490;10.908;2022-10-16T06:31:54;1.20;;;1.10;;
9445;SDS011;4761;49.490;10.908;2022-10-16T06:34:20;0.90;;;0.87;;
9445;SDS011;4761;49.490;10.908;2022-10-16T06:36:45;1.40;;;1.13;;
9445;SDS011;4761;49.490;10.908;2022-10-16T06:39:11;1.00;;;0.90;;
9445;SDS011;4761;49.490;10.908;2022-10-16T06:41:36;0.70;;;0.70;;
9445;SDS011;4761;49.490;10.908;2022-10-16T06:44:04;0.80;;;0.80;;
9445;SDS011;4761;49.490;10.908;2022-10-16T06:46:31;1.00;;;0.90;;
9445;SDS011;4761;49.490;10.908;2022-10-16T06:48:57;0.70;;;0.70;;
9445;SDS011;4761;49.490;10.908;2022-10-16T06:51:23;1.10;;;1.00;;
9445;SDS011;4761;49.490;10.908;2022-10-16T06:53:50;1.33;;;0.97;;
9445;SDS011;4761;49.490;10.908;2022-10-16T06:56:21;2.27;;;1.07;;
9445;SDS011;4761;49.490;10.908;2022-10-16T06:58:48;0.97;;;0.73;;
9445;SDS011;4761;49.490;10.908;2022-10-16T07:01:15;1.10;;;1.00;;
9445;SDS011;4761;49.490;10.908;2022-10-16T07:03:43;0.70;;;0.70;;
9445;SDS011;4761;49.490;10.908;2022-10-16T07:06:10;1.20;;;1.10;;
9445;SDS011;4761;49.490;10.908;2022-10-16T07:08:38;1.10;;;1.10;;
9445;SDS011;4761;49.490;10.908;2022-10-16T07:11:06;1.60;;;1.50;;
9445;SDS011;4761;49.490;10.908;2022-10-16T07:13:36;1.30;;;1.20;;
9445;SDS011;4761;49.490;10.908;2022-10-16T07:18:36;1.43;;;1.33;;
9445;SDS011;4761;49.490;10.908;2022-10-16T07:21:07;1.23;;;1.13;;
9445;SDS011;4761;49.490;10.908;2022-10-16T07:23:35;1.40;;;1.30;;
9445;SDS011;4761;49.490;10.908;2022-10-16T07:26:01;1.30;;;1.20;;
9445;SDS011;4761;49.490;10.908;2022-10-16T07:28:27;3.23;;;1.40;;
9445;SDS011;4761;49.490;10.908;2022-10-16T07:30:53;1.30;;;1.20;;
9445;SDS011;4761;49.490;10.908;2022-10-16T07:33:19;1.40;;;1.30;;
9445;SDS011;4761;49.490;10.908;2022-10-16T07:35:48;2.40;;;1.20;;
9445;SDS011;4761;49.490;10.908;2022-10-16T07:38:15;1.20;;;1.10;;
9445;SDS011;4761;49.490;10.908;2022-10-16T07:40:40;1.20;;;1.10;;
9445;SDS011;4761;49.490;10.908;2022-10-16T07:43:06;1.52;;;1.35;;
9445;SDS011;4761;49.490;10.908;2022-10-16T07:45:31;1.00;;;1.00;;
9445;SDS011;4761;49.490;10.908;2022-10-16T07:47:57;1.17;;;1.10;;
9445;SDS011;4761;49.490;10.908;2022-10-16T07:50:22;2.45;;;1.02;;
9445;SDS011;4761;49.490;10.908;2022-10-16T07:52:48;1.52;;;1.10;;
9445;SDS011;4761;49.490;10.908;2022-10-16T07:55:13;1.38;;;1.30;;
9445;SDS011;4761;49.490;10.908;2022-10-16T07:57:39;1.60;;;1.50;;
9445;SDS011;4761;49.490;10.908;2022-10-16T08:00:04;1.55;;;1.45;;
9445;SDS011;4761;49.490;10.908;2022-10-16T08:02:31;1.77;;;1.58;;
9445;SDS011;4761;49.490;10.908;2022-10-16T08:04:57;2.08;;;1.70;;
9445;SDS011;4761;49.490;10.908;2022-10-16T08:07:22;2.03;;;1.50;;
9445;SDS011;4761;49.490;10.908;2022-10-16T08:09:50;2.73;;;1.73;;
9445;SDS011;4761;49.490;10.908;2022-10-16T08:12:21;2.60;;;1.53;;
9445;SDS011;4761;49.490;10.908;2022-10-16T08:14:46;2.27;;;1.50;;
9445;SDS011;4761;49.490;10.908;2022-10-16T08:17:13;1.43;;;1.30;;
9445;SDS011;4761;49.490;10.908;2022-10-16T08:19:39;5.90;;;1.77;;
9445;SDS011;4761;49.490;10.908;2022-10-16T08:22:04;2.20;;;1.40;;
9445;SDS011;4761;49.490;10.908;2022-10-16T08:24:30;1.90;;;1.40;;
9445;SDS011;4761;49.490;10.908;2022-10-16T08:26:56;3.17;;;1.33;;
9445;SDS011;4761;49.490;10.908;2022-10-16T08:29:21;1.50;;;1.40;;
9445;SDS011;4761;49.490;10.908;2022-10-16T08:31:47;2.00;;;1.37;;
9445;SDS011;4761;49.490;10.908;2022-10-16T08:34:12;3.70;;;1.50;;
9445;SDS011;4761;49.490;10.908;2022-10-16T08:36:38;1.23;;;1.13;;
9445;SDS011;4761;49.490;10.908;2022-10-16T08:39:03;1.63;;;1.30;;
9445;SDS011;4761;49.490;10.908;2022-10-16T08:49:41;2.67;;;1.50;;
9445;SDS011;4761;49.490;10.908;2022-10-16T08:52:12;1.60;;;1.50;;
9445;SDS011;4761;49.490;10.908;2022-10-16T08:54:41;3.47;;;1.50;;
9445;SDS011;4761;49.490;10.908;2022-10-16T08:59:39;2.70;;;1.30;;
9445;SDS011;4761;49.490;10.908;2022-10-16T09:02:13;1.93;;;1.50;;
9445;SDS011;4761;49.490;10.908;2022-10-16T09:07:31;2.73;;;1.43;;
9445;SDS011;4761;49.490;10.908;2022-10-16T09:10:55;1.67;;;1.20;;
9445;SDS011;4761;49.490;10.908;2022-10-16T09:15:58;2.80;;;1.57;;
9445;SDS011;4761;49.490;10.908;2022-10-16T09:18:53;3.63;;;1.53;;
9445;SDS011;4761;49.490;10.908;2022-10-16T09:21:40;2.30;;;1.27;;
9445;SDS011;4761;49.490;10.908;2022-10-16T09:24:13;2.27;;;1.30;;
9445;SDS011;4761;49.490;10.908;2022-10-16T09:26:41;1.70;;;1.30;;
9445;SDS011;4761;49.490;10.908;2022-10-16T09:29:08;2.53;;;1.60;;
9445;SDS011;4761;49.490;10.908;2022-10-16T09:31:37;2.60;;;1.50;;
9445;SDS011;4761;49.490;10.908;2022-10-16T09:34:03;2.57;;;1.30;;
9445;SDS011;4761;49.490;10.908;2022-10-16T09:36:32;2.47;;;1.40;;
9445;SDS011;4761;49.490;10.908;2022-10-16T09:39:07;1.70;;;1.53;;
9445;SDS011;4761;49.490;10.908;2022-10-16T09:41:34;3.33;;;1.30;;
9445;SDS011;4761;49.490;10.908;2022-10-16T09:44:02;2.07;;;1.50;;
9445;SDS011;4761;49.490;10.908;2022-10-16T09:46:33;2.13;;;1.40;;
9445;SDS011;4761;49.490;10.908;2022-10-16T09:49:01;1.87;;;1.20;;
9445;SDS011;4761;49.490;10.908;2022-10-16T09:54:00;5.73;;;1.40;;
9445;SDS011;4761;49.490;10.908;2022-10-16T09:56:28;2.77;;;1.60;;
9445;SDS011;4761;49.490;10.908;2022-10-16T09:59:00;1.47;;;1.30;;
9445;SDS011;4761;49.490;10.908;2022-10-16T10:01:37;3.67;;;2.03;;
9445;SDS011;4761;49.490;10.908;2022-10-16T10:04:04;3.63;;;2.00;;
9445;SDS011;4761;49.490;10.908;2022-10-16T10:06:32;2.70;;;1.80;;
9445;SDS011;4761;49.490;10.908;2022-10-16T10:09:21;2.60;;;1.70;;
9445;SDS011;4761;49.490;10.908;2022-10-16T10:14:32;4.53;;;1.80;;
9445;SDS011;4761;49.490;10.908;2022-10-16T10:22:17;2.23;;;1.90;;
9445;SDS011;4761;49.490;10.908;2022-10-16T10:27:39;1.70;;;1.60;;
9445;SDS011;4761;49.490;10.908;2022-10-16T10:30:33;1.80;;;1.70;;
9445;SDS011;4761;49.490;10.908;2022-10-16T10:33:13;2.13;;;1.60;;
9445;SDS011;4761;49.490;10.908;2022-10-16T10:41:24;2.43;;;1.60;;
9445;SDS011;4761;49.490;10.908;2022-10-16T10:46:42;1.50;;;1.40;;
9445;SDS011;4761;49.490;10.908;2022-10-16T10:55:00;5.37;;;1.70;;
9445;SDS011;4761;49.490;10.908;2022-10-16T10:57:55;4.00;;;1.93;;
9445;SDS011;4761;49.490;10.908;2022-10-16T11:00:49;3.00;;;1.90;;
9445;SDS011;4761;49.490;10.908;2022-10-16T11:05:58;1.60;;;1.50;;
9445;SDS011;4761;49.490;10.908;2022-10-16T11:08:36;1.80;;;1.70;;
9445;SDS011;4761;49.490;10.908;2022-10-16T11:11:08;2.77;;;1.73;;
9445;SDS011;4761;49.490;10.908;2022-10-16T11:16:29;1.90;;;1.70;;
9445;SDS011;4761;49.490;10.908;2022-10-16T11:25:12;2.80;;;1.30;;
9445;SDS011;4761;49.490;10.908;2022-10-16T11:27:54;1.87;;;1.40;;
9445;SDS011;4761;49.490;10.908;2022-10-16T11:30:25;2.10;;;1.40;;
9445;SDS011;4761;49.490;10.908;2022-10-16T11:41:03;1.87;;;1.40;;
9445;SDS011;4761;49.490;10.908;2022-10-16T11:44:41;1.30;;;1.20;;
9445;SDS011;4761;49.490;10.908;2022-10-16T11:47:14;3.17;;;1.20;;
9445;SDS011;4761;49.490;10.908;2022-10-16T11:49:53;4.53;;;1.33;;
9445;SDS011;4761;49.490;10.908;2022-10-16T11:55:16;1.80;;;1.33;;
9445;SDS011;4761;49.490;10.908;2022-10-16T11:57:49;1.20;;;1.10;;
9445;SDS011;4761;49.490;10.908;2022-10-16T12:00:25;1.47;;;1.17;;
9445;SDS011;4761;49.490;10.908;2022-10-16T12:02:57;1.87;;;1.20;;
9445;SDS011;4761;49.490;10.908;2022-10-16T12:05:35;2.87;;;1.67;;
9445;SDS011;4761;49.490;10.908;2022-10-16T12:08:12;2.13;;;1.30;;
9445;SDS011;4761;49.490;10.908;2022-10-16T12:10:40;1.70;;;1.30;;
9445;SDS011;4761;49.490;10.908;2022-10-16T12:18:37;1.38;;;1.20;;
9445;SDS011;4761;49.490;10.908;2022-10-16T12:21:08;2.10;;;1.23;;
9445;SDS011;4761;49.490;10.908;2022-10-16T12:23:38;1.37;;;1.20;;
9445;SDS011;4761;49.490;10.908;2022-10-16T12:26:28;1.23;;;1.13;;
9445;SDS011;4761;49.490;10.908;2022-10-16T12:29:08;1.10;;;1.00;;
9445;SDS011;4761;49.490;10.908;2022-10-16T12:31:58;1.10;;;1.02;;
9445;SDS011;4761;49.490;10.908;2022-10-16T12:34:28;1.02;;;1.00;;
9445;SDS011;4761;49.490;10.908;2022-10-16T12:37:25;1.42;;;1.20;;
9445;SDS011;4761;49.490;10.908;2022-10-16T12:40:10;2.07;;;1.30;;
9445;SDS011;4761;49.490;10.908;2022-10-16T12:42:48;1.63;;;1.20;;
9445;SDS011;4761;49.490;10.908;2022-10-16T12:47:59;1.20;;;1.10;;
9445;SDS011;4761;49.490;10.908;2022-10-16T12:50:29;1.77;;;1.40;;
9445;SDS011;4761;49.490;10.908;2022-10-16T12:52:57;1.23;;;1.10;;
9445;SDS011;4761;49.490;10.908;2022-10-16T12:55:24;1.35;;;1.25;;
9445;SDS011;4761;49.490;10.908;2022-10-16T12:58:35;1.85;;;1.00;;
9445;SDS011;4761;49.490;10.908;2022-10-16T13:01:07;1.23;;;1.10;;
9445;SDS011;4761;49.490;10.908;2022-10-16T13:03:53;1.60;;;1.23;;
9445;SDS011;4761;49.490;10.908;2022-10-16T13:06:42;1.60;;;1.03;;
9445;SDS011;4761;49.490;10.908;2022-10-16T13:15:17;1.20;;;1.10;;
9445;SDS011;4761;49.490;10.908;2022-10-16T13:17:57;1.00;;;1.00;;
9445;SDS011;4761;49.490;10.908;2022-10-16T13:24:00;1.08;;;0.98;;
9445;SDS011;4761;49.490;10.908;2022-10-16T13:26:34;2.15;;;1.00;;
9445;SDS011;4761;49.490;10.908;2022-10-16T13:29:08;1.58;;;1.10;;
9445;SDS011;4761;49.490;10.908;2022-10-16T13:31:36;1.52;;;1.10;;
9445;SDS011;4761;49.490;10.908;2022-10-16T13:34:03;2.35;;;1.05;;
9445;SDS011;4761;49.490;10.908;2022-10-16T13:36:35;1.10;;;1.00;;
9445;SDS011;4761;49.490;10.908;2022-10-16T13:39:13;3.65;;;1.13;;
9445;SDS011;4761;49.490;10.908;2022-10-16T13:41:42;1.10;;;1.00;;
9445;SDS011;4761;49.490;10.908;2022-10-16T13:44:13;1.45;;;0.90;;
9445;SDS011;4761;49.490;10.908;2022-10-16T13:46:42;1.20;;;1.10;;
9445;SDS011;4761;49.490;10.908;2022-10-16T13:49:14;1.10;;;0.95;;
9445;SDS011;4761;49.490;10.908;2022-10-16T13:51:41;0.95;;;0.93;;
9445;SDS011;4761;49.490;10.908;2022-10-16T13:54:19;1.35;;;1.00;;
9445;SDS011;4761;49.490;10.908;2022-10-16T13:56:45;2.28;;;1.20;;
9445;SDS011;4761;49.490;10.908;2022-10-16T13:59:24;1.85;;;1.10;;
9445;SDS011;4761;49.490;10.908;2022-10-16T14:01:51;1.10;;;1.00;;
9445;SDS011;4761;49.490;10.908;2022-10-16T14:04:20;2.63;;;1.05;;
9445;SDS011;4761;49.490;10.908;2022-10-16T14:06:46;0.90;;;0.90;;
9445;SDS011;4761;49.490;10.908;2022-10-16T14:09:21;0.80;;;0.80;;
9445;SDS011;4761;49.490;10.908;2022-10-16T14:11:55;1.45;;;1.08;;
9445;SDS011;4761;49.490;10.908;2022-10-16T14:14:27;1.10;;;1.00;;
9445;SDS011;4761;49.490;10.908;2022-10-16T14:16:59;1.77;;;1.13;;
9445;SDS011;4761;49.490;10.908;2022-10-16T14:19:25;1.10;;;1.10;;
9445;SDS011;4761;49.490;10.908;2022-10-16T14:21:53;2.78;;;1.00;;
9445;SDS011;4761;49.490;10.908;2022-10-16T14:24:26;2.40;;;1.00;;
9445;SDS011;4761;49.490;10.908;2022-10-16T14:26:57;1.30;;;1.10;;
9445;SDS011;4761;49.490;10.908;2022-10-16T14:29:24;1.50;;;0.93;;
9445;SDS011;4761;49.490;10.908;2022-10-16T14:32:01;3.30;;;0.98;;
9445;SDS011;4761;49.490;10.908;2022-10-16T14:34:34;0.93;;;0.90;;
9445;SDS011;4761;49.490;10.908;2022-10-16T14:37:10;3.33;;;1.00;;
9445;SDS011;4761;49.490;10.908;2022-10-16T14:39:50;1.40;;;1.02;;
9445;SDS011;4761;49.490;10.908;2022-10-16T14:42:16;1.23;;;1.10;;
9445;SDS011;4761;49.490;10.908;2022-10-16T14:44:44;1.65;;;1.00;;
9445;SDS011;4761;49.490;10.908;2022-10-16T14:47:13;1.70;;;1.02;;
9445;SDS011;4761;49.490;10.908;2022-10-16T14:49:42;1.52;;;1.10;;
9445;SDS011;4761;49.490;10.908;2022-10-16T14:52:11;0.93;;;0.93;;
9445;SDS011;4761;49.490;10.908;2022-10-16T14:54:37;1.13;;;1.00;;
9445;SDS011;4761;49.490;10.908;2022-10-16T14:57:03;2.45;;;1.15;;
9445;SDS011;4761;49.490;10.908;2022-10-16T14:59:35;1.17;;;1.08;;
9445;SDS011;4761;49.490;10.908;2022-10-16T15:02:16;1.17;;;1.10;;
9445;SDS011;4761;49.490;10.908;2022-10-16T15:04:45;1.15;;;1.05;;
9445;SDS011;4761;49.490;10.908;2022-10-16T15:07:10;1.50;;;1.10;;
9445;SDS011;4761;49.490;10.908;2022-10-16T15:09:36;1.30;;;1.20;;
9445;SDS011;4761;49.490;10.908;2022-10-16T15:12:01;1.55;;;0.95;;
9445;SDS011;4761;49.490;10.908;2022-10-16T15:14:27;1.65;;;1.15;;
9445;SDS011;4761;49.490;10.908;2022-10-16T15:16:53;1.10;;;1.00;;
9445;SDS011;4761;49.490;10.908;2022-10-16T15:19:18;0.97;;;0.97;;
9445;SDS011;4761;49.490;10.908;2022-10-16T15:21:44;1.67;;;0.90;;
9445;SDS011;4761;49.490;10.908;2022-10-16T15:24:11;1.20;;;1.10;;
9445;SDS011;4761;49.490;10.908;2022-10-16T15:26:38;1.35;;;0.90;;
9445;SDS011;4761;49.490;10.908;2022-10-16T15:29:04;2.22;;;1.15;;
9445;SDS011;4761;49.490;10.908;2022-10-16T15:31:30;1.17;;;1.08;;
9445;SDS011;4761;49.490;10.908;2022-10-16T15:33:55;1.25;;;1.10;;
9445;SDS011;4761;49.490;10.908;2022-10-16T15:36:27;3.72;;;1.20;;
9445;SDS011;4761;49.490;10.908;2022-10-16T15:38:54;1.95;;;1.17;;
9445;SDS011;4761;49.490;10.908;2022-10-16T15:41:20;1.75;;;1.20;;
9445;SDS011;4761;49.490;10.908;2022-10-16T15:43:47;2.40;;;1.00;;
9445;SDS011;4761;49.490;10.908;2022-10-16T15:46:14;1.33;;;1.23;;
9445;SDS011;4761;49.490;10.908;2022-10-16T15:48:42;1.35;;;1.20;;
9445;SDS011;4761;49.490;10.908;2022-10-16T15:51:08;1.92;;;1.35;;
9445;SDS011;4761;49.490;10.908;2022-10-16T15:53:34;1.20;;;1.10;;
9445;SDS011;4761;49.490;10.908;2022-10-16T15:56:06;2.92;;;1.30;;
9445;SDS011;4761;49.490;10.908;2022-10-16T15:58:33;2.00;;;1.10;;
9445;SDS011;4761;49.490;10.908;2022-10-16T16:01:00;1.30;;;1.20;;
9445;SDS011;4761;49.490;10.908;2022-10-16T16:03:26;1.60;;;1.40;;
9445;SDS011;4761;49.490;10.908;2022-10-16T16:05:53;1.45;;;1.30;;
9445;SDS011;4761;49.490;10.908;2022-10-16T16:08:19;5.18;;;1.30;;
9445;SDS011;4761;49.490;10.908;2022-10-16T16:10:45;1.58;;;1.20;;
9445;SDS011;4761;49.490;10.908;2022-10-16T16:13:21;1.45;;;1.23;;
9445;SDS011;4761;49.490;10.908;2022-10-16T16:15:47;1.45;;;1.17;;
9445;SDS011;4761;49.490;10.908;2022-10-16T16:18:12;2.15;;;1.20;;
9445;SDS011;4761;49.490;10.908;2022-10-16T16:20:38;2.95;;;1.20;;
9445;SDS011;4761;49.490;10.908;2022-10-16T16:23:03;1.73;;;1.10;;
9445;SDS011;4761;49.490;10.908;2022-10-16T16:25:29;2.22;;;1.40;;
9445;SDS011;4761;49.490;10.908;2022-10-16T16:27:54;1.77;;;1.40;;
9445;SDS011;4761;49.490;10.908;2022-10-16T16:30:20;1.80;;;1.38;;
9445;SDS011;4761;49.490;10.908;2022-10-16T16:32:45;1.45;;;1.27;;
9445;SDS011;4761;49.490;10.908;2022-10-16T16:35:11;2.60;;;1.63;;
9445;SDS011;4761;49.490;10.908;2022-10-16T16:37:37;1.50;;;1.40;;
9445;SDS011;4761;49.490;10.908;2022-10-16T16:40:02;1.48;;;1.20;;
9445;SDS011;4761;49.490;10.908;2022-10-16T16:42:28;2.55;;;1.40;;
9445;SDS011;4761;49.490;10.908;2022-10-16T16:44:54;3.07;;;1.63;;
9445;SDS011;4761;49.490;10.908;2022-10-16T16:47:19;2.33;;;1.50;;
9445;SDS011;4761;49.490;10.908;2022-10-16T16:49:45;2.28;;;1.50;;
9445;SDS011;4761;49.490;10.908;2022-10-16T16:52:11;3.72;;;1.70;;